Time;durP1;ratioP1;P1;durP2;ratioP2;P2;SDS_P1;SDS_P2;PMS_P1;PMS_P2;Temp;Humidity;BMP_temperature;BMP_pressure;BME280_temperature;BME280_humidity;BME280_pressure;Samples;Min_cycle;Max_cycle;Signal;HPM_P1;HPM_P2
2024/03/07 00:00:47;;;;;;;1.08;1.08;;;-4.40;99.90;;;;;;5114424;28;20664;-75
2024/03/07 00:03:13;;;;;;;1.70;1.60;;;-4.50;99.90;;;;;;5114235;28;20278;-75
2024/03/07 00:05:39;;;;;;;2.95;1.75;;;-4.60;99.90;;;;;;5114257;28;20290;-75
2024/03/07 00:08:06;;;;;;;2.05;1.35;;;-4.60;99.90;;;;;;5114368;28;20187;-75
2024/03/07 00:10:36;;;;;;;0.90;0.90;;;-4.60;99.90;;;;;;5114044;28;20247;-75
2024/03/07 00:13:03;;;;;;;0.70;0.70;;;-4.60;99.90;;;;;;5096150;28;20206;-75
2024/03/07 00:15:30;;;;;;;0.80;0.80;;;-4.60;99.90;;;;;;5114028;28;20663;-75
2024/03/07 00:17:56;;;;;;;0.70;0.70;;;-4.60;99.90;;;;;;5114144;28;20187;-75
2024/03/07 00:20:24;;;;;;;0.93;0.93;;;-4.60;99.90;;;;;;5113935;28;20215;-75
2024/03/07 00:22:53;;;;;;;0.90;0.90;;;-4.50;99.90;;;;;;5113856;28;20274;-74
2024/03/07 00:25:19;;;;;;;0.93;0.93;;;-4.50;99.90;;;;;;5113798;28;20203;-75
2024/03/07 00:27:45;;;;;;;0.80;0.80;;;-4.50;99.90;;;;;;5113845;28;20191;-75
2024/03/07 00:30:25;;;;;;;0.70;0.70;;;-4.60;99.90;;;;;;5129674;27;20567;-75
2024/03/07 00:32:50;;;;;;;0.82;0.82;;;-4.60;99.90;;;;;;5113833;28;20195;-75
2024/03/07 00:35:25;;;;;;;0.82;0.82;;;-4.60;99.90;;;;;;5095660;28;20682;-75
2024/03/07 00:37:53;;;;;;;0.80;0.80;;;-4.50;99.90;;;;;;5113794;28;20241;-75
2024/03/07 00:40:19;;;;;;;1.13;1.13;;;-4.50;99.90;;;;;;5113843;28;20717;-75
2024/03/07 00:42:45;;;;;;;0.85;0.85;;;-4.50;99.90;;;;;;5113607;28;20191;-75
2024/03/07 00:45:11;;;;;;;0.82;0.82;;;-4.60;99.90;;;;;;5113496;28;20199;-75
2024/03/07 00:47:38;;;;;;;0.80;0.80;;;-4.60;99.90;;;;;;5095265;28;20200;-75
2024/03/07 00:50:04;;;;;;;0.70;0.70;;;-4.60;99.90;;;;;;5095237;28;20191;-75
2024/03/07 00:52:29;;;;;;;0.85;0.85;;;-4.60;99.90;;;;;;5113176;28;20583;-75
2024/03/07 00:54:55;;;;;;;0.80;0.80;;;-4.70;99.90;;;;;;5113492;28;20619;-75
2024/03/07 00:57:20;;;;;;;0.80;0.80;;;-4.80;99.90;;;;;;5113280;28;20195;-75
2024/03/07 00:59:48;;;;;;;0.85;0.85;;;-4.80;99.90;;;;;;5113322;28;20199;-75
2024/03/07 01:02:14;;;;;;;0.90;0.90;;;-4.80;99.90;;;;;;5094947;28;20288;-74
2024/03/07 01:04:40;;;;;;;0.90;0.90;;;-4.80;99.90;;;;;;5093873;28;20620;-75
2024/03/07 01:07:06;;;;;;;0.90;0.90;;;-4.90;99.90;;;;;;5113296;28;20188;-75
2024/03/07 01:09:31;;;;;;;1.00;1.00;;;-4.90;99.90;;;;;;5113140;28;20184;-75
2024/03/07 01:11:59;;;;;;;1.00;1.00;;;-4.90;99.90;;;;;;5113220;28;20184;-74
2024/03/07 01:14:25;;;;;;;0.70;0.70;;;-4.90;99.90;;;;;;5094791;28;20195;-74
2024/03/07 01:16:50;;;;;;;0.80;0.80;;;-4.90;99.90;;;;;;5113247;28;20191;-75
2024/03/07 01:19:16;;;;;;;0.90;0.90;;;-4.90;99.90;;;;;;5113059;28;20237;-75
2024/03/07 01:21:42;;;;;;;0.70;0.70;;;-5.00;99.90;;;;;;5113039;28;20673;-75
2024/03/07 01:24:08;;;;;;;0.90;0.90;;;-5.00;99.90;;;;;;5112995;28;20203;-75
2024/03/07 01:26:33;;;;;;;0.93;0.93;;;-5.00;99.90;;;;;;5112909;28;20195;-75
2024/03/07 01:28:59;;;;;;;0.80;0.80;;;-5.00;99.90;;;;;;5112852;28;20263;-75
2024/03/07 01:31:25;;;;;;;0.70;0.70;;;-5.00;99.90;;;;;;5112868;28;20619;-75
2024/03/07 01:33:51;;;;;;;1.45;1.35;;;-5.00;99.90;;;;;;5112985;28;20203;-75
2024/03/07 01:36:17;;;;;;;0.80;0.80;;;-5.00;99.90;;;;;;5113019;28;20223;-75
2024/03/07 01:38:53;;;;;;;0.90;0.90;;;-5.00;99.90;;;;;;5112855;28;20276;-75
2024/03/07 01:41:28;;;;;;;1.30;1.27;;;-5.10;99.90;;;;;;5095203;28;20228;-76
2024/03/07 01:43:54;;;;;;;0.85;0.85;;;-5.10;99.90;;;;;;5112764;28;20216;-75
2024/03/07 01:46:19;;;;;;;0.80;0.80;;;-5.10;99.90;;;;;;5112751;28;20195;-75
2024/03/07 01:48:46;;;;;;;0.90;0.90;;;-5.10;99.90;;;;;;5112267;28;20304;-75
2024/03/07 01:51:13;;;;;;;1.10;1.10;;;-5.00;99.90;;;;;;5112809;28;20183;-75
2024/03/07 01:53:39;;;;;;;0.90;0.90;;;-5.00;99.90;;;;;;5112636;28;20659;-75
2024/03/07 01:56:05;;;;;;;0.82;0.82;;;-5.00;99.90;;;;;;5112830;28;20274;-75
2024/03/07 01:58:32;;;;;;;0.80;0.80;;;-5.10;99.90;;;;;;5112535;28;20188;-75
2024/03/07 02:00:58;;;;;;;0.90;0.90;;;-5.10;99.90;;;;;;5112818;28;20215;-75
2024/03/07 02:03:24;;;;;;;0.90;0.90;;;-5.10;99.90;;;;;;5112486;28;20213;-76
2024/03/07 02:05:50;;;;;;;0.95;0.95;;;-5.20;99.90;;;;;;5112963;28;20274;-76
2024/03/07 02:08:16;;;;;;;0.88;0.88;;;-5.10;99.90;;;;;;5112389;28;20698;-77
2024/03/07 02:10:42;;;;;;;0.80;0.80;;;-5.10;99.90;;;;;;5094129;28;20219;-76
2024/03/07 02:13:08;;;;;;;0.70;0.70;;;-5.10;99.90;;;;;;5112513;28;20184;-75
2024/03/07 02:15:33;;;;;;;0.80;0.80;;;-5.20;99.90;;;;;;5095596;28;20187;-76
2024/03/07 02:17:59;;;;;;;0.80;0.80;;;-5.20;99.90;;;;;;5116433;28;20542;-76
2024/03/07 02:20:27;;;;;;;0.82;0.82;;;-5.20;99.90;;;;;;5115937;28;20589;-76
2024/03/07 02:23:19;;;;;;;0.80;0.80;;;-5.20;99.90;;;;;;5116494;28;20275;-76
2024/03/07 02:25:45;;;;;;;0.90;0.90;;;-5.30;99.90;;;;;;5112576;28;20234;-75
2024/03/07 02:28:11;;;;;;;1.55;1.45;;;-5.20;99.90;;;;;;5115845;28;20662;-76
2024/03/07 02:30:36;;;;;;;0.80;0.80;;;-5.20;99.90;;;;;;5115726;28;20244;-76
2024/03/07 02:33:09;;;;;;;0.80;0.80;;;-5.20;99.90;;;;;;5115960;28;20690;-76
2024/03/07 02:35:36;;;;;;;0.80;0.80;;;-5.20;99.90;;;;;;5116054;28;20591;-76
2024/03/07 02:38:05;;;;;;;0.90;0.90;;;-5.20;99.90;;;;;;5116038;28;20195;-76
2024/03/07 02:40:31;;;;;;;0.93;0.93;;;-5.20;99.90;;;;;;5115858;28;20188;-75
2024/03/07 02:42:57;;;;;;;0.90;0.90;;;-5.20;99.90;;;;;;5115964;28;20190;-76
2024/03/07 02:45:23;;;;;;;0.90;0.90;;;-5.20;99.90;;;;;;5113618;28;20204;-76
2024/03/07 02:47:49;;;;;;;0.85;0.85;;;-5.20;99.90;;;;;;5115860;28;20191;-76
2024/03/07 02:50:15;;;;;;;0.70;0.70;;;-5.20;99.90;;;;;;5097672;28;20587;-76
2024/03/07 02:52:40;;;;;;;1.00;1.00;;;-5.20;99.90;;;;;;5115578;28;20194;-76
2024/03/07 02:55:10;;;;;;;0.77;0.77;;;-5.20;99.90;;;;;;5115761;28;20202;-76
2024/03/07 02:57:36;;;;;;;1.00;1.00;;;-5.20;99.90;;;;;;5131542;27;20203;-75
2024/03/07 03:00:03;;;;;;;1.00;1.00;;;-5.30;99.90;;;;;;5115817;28;20562;-76
2024/03/07 03:02:28;;;;;;;0.80;0.80;;;-5.30;99.90;;;;;;5115385;28;20241;-76
2024/03/07 03:04:54;;;;;;;0.80;0.80;;;-5.30;99.90;;;;;;5115600;28;20210;-76
2024/03/07 03:07:20;;;;;;;0.85;0.85;;;-5.30;99.90;;;;;;5115467;28;20199;-76
2024/03/07 03:09:46;;;;;;;0.75;0.75;;;-5.30;99.90;;;;;;5115501;28;20565;-75
2024/03/07 03:12:12;;;;;;;0.90;0.90;;;-5.40;99.90;;;;;;5115571;28;20647;-71
2024/03/07 03:14:38;;;;;;;1.00;1.00;;;-5.40;99.90;;;;;;5115348;28;20237;-71
2024/03/07 03:17:08;;;;;;;0.80;0.80;;;-5.50;99.90;;;;;;5115408;28;20207;-71
2024/03/07 03:19:35;;;;;;;0.93;0.93;;;-5.50;99.90;;;;;;5115093;28;20643;-70
2024/03/07 03:22:00;;;;;;;1.00;1.00;;;-5.50;99.90;;;;;;5115319;28;20264;-70
2024/03/07 03:24:27;;;;;;;1.00;1.00;;;-5.40;99.90;;;;;;5096650;28;20215;-71
2024/03/07 03:26:52;;;;;;;0.90;0.90;;;-5.40;99.90;;;;;;5114204;28;20253;-71
2024/03/07 03:29:18;;;;;;;0.85;0.85;;;-5.40;99.90;;;;;;5096902;28;20223;-71
2024/03/07 03:31:44;;;;;;;1.00;1.00;;;-5.40;99.90;;;;;;5115030;28;20195;-70
2024/03/07 03:34:10;;;;;;;0.90;0.90;;;-5.40;99.90;;;;;;5096746;28;20199;-70
2024/03/07 03:36:35;;;;;;;0.80;0.80;;;-5.40;99.90;;;;;;5096631;28;20200;-71
2024/03/07 03:39:01;;;;;;;0.90;0.90;;;-5.40;99.90;;;;;;5114958;28;20655;-71
2024/03/07 03:41:27;;;;;;;1.10;1.10;;;-5.40;99.90;;;;;;5109674;28;20204;-71
2024/03/07 03:43:53;;;;;;;0.98;0.98;;;-5.40;99.90;;;;;;5114761;28;20211;-70
2024/03/07 03:46:18;;;;;;;0.82;0.82;;;-5.40;99.90;;;;;;5114888;28;20195;-70
2024/03/07 03:48:44;;;;;;;0.93;0.93;;;-5.40;99.90;;;;;;5114739;28;20200;-71
2024/03/07 03:51:12;;;;;;;0.80;0.80;;;-5.40;99.90;;;;;;5096483;28;20219;-71
2024/03/07 03:53:38;;;;;;;0.90;0.90;;;-5.50;99.90;;;;;;5114472;28;20202;-70
2024/03/07 03:56:05;;;;;;;0.90;0.90;;;-5.60;99.90;;;;;;5114746;28;20199;-70
2024/03/07 03:58:31;;;;;;;1.05;1.05;;;-5.60;99.90;;;;;;5114402;28;20198;-70
2024/03/07 04:00:58;;;;;;;0.90;0.90;;;-5.70;99.90;;;;;;5088619;28;20687;-71
2024/03/07 04:03:24;;;;;;;0.93;0.93;;;-5.70;99.90;;;;;;5108651;28;20195;-70
2024/03/07 04:05:50;;;;;;;0.90;0.90;;;-5.70;99.90;;;;;;5114449;28;20195;-70
2024/03/07 04:08:16;;;;;;;0.90;0.90;;;-5.70;99.90;;;;;;5114373;28;20195;-70
2024/03/07 04:10:42;;;;;;;0.80;0.80;;;-5.70;99.90;;;;;;5114210;28;20195;-71
2024/03/07 04:13:07;;;;;;;0.90;0.90;;;-5.60;99.90;;;;;;5114206;28;20192;-71
2024/03/07 04:15:33;;;;;;;1.00;1.00;;;-5.60;99.90;;;;;;5114048;28;20664;-71
2024/03/07 04:17:59;;;;;;;0.90;0.90;;;-5.60;99.90;;;;;;5114202;28;20199;-71
2024/03/07 04:20:25;;;;;;;0.90;0.90;;;-5.60;99.90;;;;;;5095617;28;20200;-71
2024/03/07 04:22:51;;;;;;;1.53;1.43;;;-5.50;99.90;;;;;;5096001;28;20200;-75
2024/03/07 04:25:17;;;;;;;1.00;1.00;;;-5.50;99.90;;;;;;5113924;28;20208;-75
2024/03/07 04:27:43;;;;;;;0.88;0.88;;;-5.60;99.90;;;;;;5114005;28;20282;-75
2024/03/07 04:30:12;;;;;;;1.55;1.45;;;-5.60;99.90;;;;;;5114250;28;20266;-75
2024/03/07 04:32:38;;;;;;;0.90;0.90;;;-5.70;99.90;;;;;;5113803;28;20192;-76
2024/03/07 04:35:07;;;;;;;0.80;0.80;;;-5.70;99.90;;;;;;5113829;28;20232;-75
2024/03/07 04:37:37;;;;;;;1.08;1.08;;;-5.70;99.90;;;;;;5089892;28;20195;-75
2024/03/07 04:40:16;;;;;;;1.20;1.20;;;-5.70;99.90;;;;;;5113788;28;20252;-75
2024/03/07 04:42:43;;;;;;;1.00;1.00;;;-5.80;99.90;;;;;;5113647;28;20221;-75
2024/03/07 04:45:12;;;;;;;0.93;0.93;;;-5.80;99.90;;;;;;5129357;27;20765;-75
2024/03/07 04:47:39;;;;;;;1.00;1.00;;;-5.80;99.90;;;;;;5113530;28;20241;-76
2024/03/07 04:50:05;;;;;;;1.00;1.00;;;-5.80;99.90;;;;;;5113650;28;20232;-75
2024/03/07 04:52:30;;;;;;;0.90;0.90;;;-5.80;99.90;;;;;;5095142;28;20200;-75
2024/03/07 04:54:56;;;;;;;0.93;0.93;;;-5.90;99.90;;;;;;5113647;28;20248;-75
2024/03/07 04:57:22;;;;;;;0.80;0.80;;;-5.90;99.90;;;;;;5113607;28;20203;-75
2024/03/07 04:59:48;;;;;;;0.90;0.90;;;-5.90;99.90;;;;;;5113452;28;20287;-76
2024/03/07 05:02:13;;;;;;;0.93;0.93;;;-5.90;99.90;;;;;;5113194;28;20239;-76
2024/03/07 05:04:39;;;;;;;0.80;0.80;;;-6.00;99.90;;;;;;5094668;28;20581;-75
2024/03/07 05:07:05;;;;;;;0.98;0.98;;;-6.00;99.90;;;;;;5113307;28;20196;-75
2024/03/07 05:09:33;;;;;;;0.82;0.82;;;-6.00;99.90;;;;;;5113112;28;20639;-76
2024/03/07 05:11:59;;;;;;;1.53;1.43;;;-6.00;99.90;;;;;;5113256;28;20274;-76
2024/03/07 05:14:25;;;;;;;0.82;0.82;;;-6.00;99.90;;;;;;5113015;28;20345;-75
2024/03/07 05:17:06;;;;;;;1.67;1.57;;;-6.10;99.90;;;;;;5095013;28;20207;-76
2024/03/07 05:19:35;;;;;;;0.83;0.83;;;-6.10;99.90;;;;;;5112939;28;20655;-75
2024/03/07 05:22:04;;;;;;;0.90;0.90;;;-6.10;99.90;;;;;;5113075;28;20191;-75
2024/03/07 05:24:31;;;;;;;0.90;0.90;;;-6.10;99.90;;;;;;5094566;28;20294;-75
2024/03/07 05:26:57;;;;;;;0.80;0.80;;;-6.00;99.90;;;;;;5113062;28;20202;-75
2024/03/07 05:29:23;;;;;;;0.80;0.80;;;-6.10;99.90;;;;;;5112953;28;20245;-75
2024/03/07 05:31:49;;;;;;;0.80;0.80;;;-6.10;99.90;;;;;;5113424;28;20270;-70
2024/03/07 05:34:16;;;;;;;1.00;1.00;;;-6.10;99.90;;;;;;5094261;28;20203;-70
2024/03/07 05:36:48;;;;;;;1.00;1.00;;;-6.20;99.90;;;;;;5112832;28;20534;-69
2024/03/07 05:40:11;;;;;;;0.90;0.90;;;-6.20;99.90;;;;;;5114683;28;20610;-70
2024/03/07 05:42:37;;;;;;;0.90;0.90;;;-6.20;99.90;;;;;;5076035;28;20574;-70
2024/03/07 05:45:03;;;;;;;1.00;1.00;;;-6.20;99.90;;;;;;5112580;28;20203;-70
2024/03/07 05:47:28;;;;;;;0.90;0.90;;;-6.20;99.90;;;;;;5112671;28;20655;-70
2024/03/07 05:49:54;;;;;;;0.80;0.80;;;-6.10;99.90;;;;;;5113768;28;20198;-71
2024/03/07 05:52:20;;;;;;;0.87;0.87;;;-6.10;99.90;;;;;;5098591;28;20332;-73
2024/03/07 05:54:46;;;;;;;0.90;0.90;;;-6.00;99.90;;;;;;5116943;28;20240;-72
2024/03/07 05:57:11;;;;;;;0.90;0.90;;;-6.00;99.90;;;;;;5116816;28;20195;-70
2024/03/07 05:59:38;;;;;;;0.60;0.60;;;-6.00;99.90;;;;;;5116636;28;20207;-70
2024/03/07 06:02:05;;;;;;;1.53;1.43;;;-5.90;99.90;;;;;;5116682;28;20340;-69
2024/03/07 06:04:31;;;;;;;0.95;0.95;;;-5.80;99.90;;;;;;5116465;28;20203;-70
2024/03/07 06:06:57;;;;;;;0.82;0.82;;;-5.80;99.90;;;;;;5116830;28;20275;-69
2024/03/07 06:09:23;;;;;;;0.88;0.88;;;-5.80;99.90;;;;;;5098220;28;20740;-70
2024/03/07 06:11:49;;;;;;;0.80;0.80;;;-5.70;99.90;;;;;;5116657;28;20274;-69
2024/03/07 06:14:16;;;;;;;0.90;0.90;;;-5.70;99.90;;;;;;5116672;28;20199;-69
2024/03/07 06:16:42;;;;;;;0.90;0.90;;;-5.60;99.90;;;;;;5116394;28;20564;-70
2024/03/07 06:19:08;;;;;;;0.88;0.88;;;-5.60;99.90;;;;;;5116499;28;20196;-69
2024/03/07 06:21:36;;;;;;;0.90;0.90;;;-5.60;99.90;;;;;;5116366;28;20547;-70
2024/03/07 06:24:03;;;;;;;1.00;1.00;;;-5.50;99.90;;;;;;5098005;28;20614;-70
2024/03/07 06:26:59;;;;;;;0.80;0.80;;;-5.50;99.90;;;;;;5116122;28;20195;-70
2024/03/07 06:29:26;;;;;;;0.90;0.90;;;-5.40;99.90;;;;;;5115811;28;20683;-71
2024/03/07 06:31:53;;;;;;;0.90;0.90;;;-5.40;99.90;;;;;;5116239;28;20248;-70
2024/03/07 06:34:19;;;;;;;0.77;0.77;;;-5.20;99.90;;;;;;5116099;28;20202;-71
2024/03/07 06:36:45;;;;;;;0.80;0.80;;;-5.20;99.90;;;;;;5116313;28;20667;-70
2024/03/07 06:39:11;;;;;;;0.80;0.80;;;-5.10;99.90;;;;;;5116177;28;20196;-70
2024/03/07 06:41:37;;;;;;;0.80;0.80;;;-5.00;99.90;;;;;;5116105;28;20341;-75
2024/03/07 06:44:03;;;;;;;0.98;0.98;;;-4.90;99.90;;;;;;5115866;28;20286;-75
2024/03/07 06:46:29;;;;;;;0.80;0.80;;;-4.80;99.90;;;;;;5115767;28;20568;-75
2024/03/07 06:48:58;;;;;;;1.75;1.65;;;-4.70;99.90;;;;;;5115995;28;20201;-75
2024/03/07 06:51:24;;;;;;;1.00;1.00;;;-4.60;99.90;;;;;;5115880;28;20191;-75
2024/03/07 06:53:50;;;;;;;0.90;0.90;;;-4.60;99.90;;;;;;5131626;27;20231;-75
2024/03/07 06:56:17;;;;;;;0.85;0.85;;;-4.50;99.90;;;;;;5097641;28;20565;-75
2024/03/07 06:58:45;;;;;;;0.87;0.87;;;-4.40;99.90;;;;;;5115663;28;20668;-75
2024/03/07 07:01:15;;;;;;;0.88;0.88;;;-4.30;99.90;;;;;;5115708;28;20223;-75
2024/03/07 07:03:43;;;;;;;0.90;0.90;;;-4.20;99.90;;;;;;5115455;28;20211;-75
2024/03/07 07:06:10;;;;;;;1.85;1.17;;;-4.10;99.90;;;;;;5115777;28;20279;-75
2024/03/07 07:08:36;;;;;;;2.47;1.70;;;-4.00;99.90;;;;;;5115425;28;20600;-74
2024/03/07 07:11:03;;;;;;;1.75;1.65;;;-3.90;99.90;;;;;;5115584;28;20188;-75
2024/03/07 07:13:29;;;;;;;1.05;1.02;;;-3.80;99.90;;;;;;5097289;28;20196;-75
2024/03/07 07:15:55;;;;;;;0.80;0.80;;;-3.70;99.90;;;;;;5115491;28;20176;-75
2024/03/07 07:18:23;;;;;;;0.80;0.80;;;-3.60;99.90;;;;;;5115202;28;20241;-74
2024/03/07 07:20:51;;;;;;;0.80;0.80;;;-3.50;99.90;;;;;;5115252;28;20205;-75
2024/03/07 07:23:18;;;;;;;0.75;0.75;;;-3.40;99.90;;;;;;5115147;28;20271;-75
2024/03/07 07:25:43;;;;;;;0.73;0.73;;;-3.20;99.90;;;;;;5114812;28;20192;-74
2024/03/07 07:28:11;;;;;;;0.90;0.90;;;-3.10;99.90;;;;;;5115088;28;20225;-75
2024/03/07 07:30:37;;;;;;;0.85;0.85;;;-3.00;99.90;;;;;;5115015;28;20275;-75
2024/03/07 07:33:03;;;;;;;1.45;1.35;;;-2.80;99.90;;;;;;5115054;28;20714;-75
2024/03/07 07:35:29;;;;;;;0.80;0.80;;;-2.60;99.90;;;;;;5114830;28;20192;-75
2024/03/07 07:37:55;;;;;;;1.00;1.00;;;-2.50;99.90;;;;;;5115079;28;20223;-75
2024/03/07 07:40:22;;;;;;;0.90;0.90;;;-2.40;99.90;;;;;;5114876;28;20214;-75
2024/03/07 07:42:54;;;;;;;0.75;0.75;;;-2.30;99.90;;;;;;5114923;28;20595;-75
2024/03/07 07:45:21;;;;;;;0.80;0.80;;;-2.10;99.90;;;;;;5114654;28;20230;-75
2024/03/07 07:47:51;;;;;;;0.70;0.70;;;-1.90;99.90;;;;;;5114913;28;20192;-73
2024/03/07 07:50:21;;;;;;;0.80;0.80;;;-1.70;99.90;;;;;;5096441;28;20627;-73
2024/03/07 07:52:53;;;;;;;0.80;0.80;;;-1.60;99.90;;;;;;5131231;27;20655;-70
2024/03/07 07:55:20;;;;;;;0.95;0.95;;;-1.50;99.90;;;;;;5130345;27;20712;-70
2024/03/07 07:57:54;;;;;;;0.80;0.80;;;-1.30;99.90;;;;;;5114583;28;20675;-70
2024/03/07 08:00:21;;;;;;;0.80;0.80;;;-1.20;99.90;;;;;;5114523;28;20659;-70
2024/03/07 08:03:17;;;;;;;0.70;0.70;;;-1.00;99.90;;;;;;5114279;28;20263;-69
2024/03/07 08:05:44;;;;;;;1.50;1.10;;;-0.80;99.90;;;;;;5097599;28;20214;-69
2024/03/07 08:08:16;;;;;;;0.73;0.73;;;-0.60;99.90;;;;;;5114946;28;20211;-70
2024/03/07 08:10:42;;;;;;;3.72;1.55;;;-0.60;99.90;;;;;;5114245;28;20180;-70
2024/03/07 08:13:10;;;;;;;0.70;0.70;;;-0.30;99.90;;;;;;5113739;28;20557;-70
2024/03/07 08:15:36;;;;;;;0.80;0.80;;;0.00;99.90;;;;;;5114155;28;20188;-70
2024/03/07 08:18:05;;;;;;;0.80;0.80;;;0.20;99.90;;;;;;5114209;28;20183;-70
2024/03/07 08:20:32;;;;;;;0.77;0.77;;;0.40;99.90;;;;;;5095941;28;20261;-71
2024/03/07 08:22:59;;;;;;;0.70;0.70;;;0.60;99.90;;;;;;5113713;28;20248;-72
2024/03/07 08:25:27;;;;;;;1.00;1.00;;;0.80;99.90;;;;;;5113842;28;20245;-70
2024/03/07 08:27:54;;;;;;;1.17;1.10;;;1.10;99.90;;;;;;5129909;27;20202;-70
2024/03/07 08:30:20;;;;;;;0.70;0.70;;;1.30;99.90;;;;;;5113924;28;20278;-71
2024/03/07 08:32:53;;;;;;;0.70;0.70;;;1.50;99.90;;;;;;5113977;28;20678;-71
2024/03/07 08:35:19;;;;;;;1.42;1.10;;;1.60;99.90;;;;;;5113889;28;20278;-70
2024/03/07 08:37:52;;;;;;;0.90;0.90;;;1.70;99.90;;;;;;5114159;28;20267;-71
2024/03/07 08:40:21;;;;;;;0.80;0.80;;;1.90;99.90;;;;;;5129627;27;20291;-71
2024/03/07 08:42:51;;;;;;;0.80;0.80;;;2.10;99.90;;;;;;5113785;28;20644;-68
2024/03/07 08:45:21;;;;;;;0.70;0.70;;;2.30;99.90;;;;;;5113563;28;20208;-69
2024/03/07 08:47:49;;;;;;;0.90;0.90;;;2.40;99.90;;;;;;5113650;28;20691;-70
2024/03/07 08:50:17;;;;;;;0.82;0.82;;;2.60;99.90;;;;;;5113575;28;20230;-71
2024/03/07 08:52:44;;;;;;;0.80;0.80;;;2.70;99.90;;;;;;5129434;27;20198;-70
2024/03/07 08:55:14;;;;;;;0.90;0.90;;;2.80;99.90;;;;;;5113425;28;20709;-69
2024/03/07 08:57:41;;;;;;;1.17;1.08;;;3.00;99.90;;;;;;5113307;28;20199;-70
2024/03/07 09:00:08;;;;;;;1.30;1.23;;;3.10;99.90;;;;;;5113500;28;20192;-70
2024/03/07 09:02:34;;;;;;;0.80;0.80;;;3.20;99.90;;;;;;5078048;28;20235;-74
2024/03/07 09:05:01;;;;;;;0.93;0.93;;;3.30;99.90;;;;;;5093082;28;20298;-73
2024/03/07 09:07:29;;;;;;;0.80;0.80;;;3.60;99.90;;;;;;5092878;28;20745;-73
2024/03/07 09:09:55;;;;;;;1.00;1.00;;;3.80;99.90;;;;;;5093022;28;20188;-74
2024/03/07 09:12:20;;;;;;;0.73;0.73;;;4.10;99.90;;;;;;5074597;28;20192;-74
2024/03/07 09:14:46;;;;;;;0.75;0.75;;;4.30;99.90;;;;;;5092905;28;20250;-75
2024/03/07 09:17:12;;;;;;;0.70;0.70;;;4.50;99.90;;;;;;5092859;28;20189;-75
2024/03/07 09:19:38;;;;;;;0.93;0.93;;;4.60;99.90;;;;;;5087501;28;20192;-75
2024/03/07 09:22:04;;;;;;;0.93;0.93;;;4.80;99.90;;;;;;5074577;28;20192;-75
2024/03/07 09:24:30;;;;;;;0.70;0.70;;;5.00;99.90;;;;;;5091642;28;20200;-74
2024/03/07 09:26:57;;;;;;;0.73;0.73;;;5.20;99.90;;;;;;5092603;28;20555;-74
2024/03/07 09:29:23;;;;;;;0.80;0.80;;;5.20;99.90;;;;;;5092516;28;20206;-75
2024/03/07 09:31:53;;;;;;;0.80;0.80;;;5.40;99.90;;;;;;5092750;28;20243;-74
2024/03/07 09:34:20;;;;;;;0.70;0.70;;;5.60;99.90;;;;;;5092472;28;20608;-74
2024/03/07 09:36:50;;;;;;;0.80;0.80;;;5.50;99.90;;;;;;5108352;28;20232;-74
2024/03/07 09:39:16;;;;;;;0.73;0.73;;;5.50;99.90;;;;;;5092564;28;20192;-74
2024/03/07 09:41:42;;;;;;;0.80;0.80;;;5.40;99.90;;;;;;5092416;28;20188;-74
2024/03/07 09:44:22;;;;;;;0.82;0.82;;;5.60;99.90;;;;;;5092392;28;20252;-74
2024/03/07 09:46:50;;;;;;;0.80;0.80;;;5.60;99.90;;;;;;5074328;28;20553;-74
2024/03/07 09:49:17;;;;;;;0.80;0.80;;;5.80;99.90;;;;;;5074564;28;20204;-74
2024/03/07 09:51:44;;;;;;;0.80;0.80;;;6.10;99.90;;;;;;5108018;28;20203;-75
2024/03/07 09:54:10;;;;;;;0.77;0.77;;;6.50;99.90;;;;;;5092419;28;20241;-74
2024/03/07 09:56:37;;;;;;;34.58;5.47;;;6.50;99.90;;;;;;5074430;28;20200;-74
2024/03/07 09:59:07;;;;;;;0.73;0.73;;;6.40;99.90;;;;;;5092432;28;20188;-74
2024/03/07 10:01:37;;;;;;;0.80;0.80;;;6.60;99.90;;;;;;5092171;28;20236;-73
2024/03/07 10:04:11;;;;;;;0.68;0.68;;;6.80;99.90;;;;;;5092224;28;20204;-74
2024/03/07 10:06:46;;;;;;;1.40;1.10;;;6.90;99.90;;;;;;5092287;28;20184;-74
2024/03/07 10:09:13;;;;;;;0.70;0.70;;;7.10;99.90;;;;;;5092291;28;20270;-74
2024/03/07 10:11:41;;;;;;;0.70;0.70;;;7.20;99.90;;;;;;5074013;28;20223;-69
2024/03/07 10:14:07;;;;;;;0.80;0.80;;;7.60;99.90;;;;;;5091004;28;20562;-70
2024/03/07 10:16:33;;;;;;;0.70;0.70;;;7.80;99.90;;;;;;5088230;28;20250;-70
2024/03/07 10:19:01;;;;;;;0.70;0.70;;;7.90;99.90;;;;;;5092281;28;20601;-72
2024/03/07 10:21:27;;;;;;;0.77;0.77;;;8.20;99.90;;;;;;5091995;28;20275;-71
2024/03/07 10:24:06;;;;;;;0.85;0.85;;;8.40;99.90;;;;;;5092144;28;20279;-73
2024/03/07 10:26:37;;;;;;;0.73;0.73;;;8.60;99.90;;;;;;5073607;28;20196;-72
2024/03/07 10:29:04;;;;;;;0.85;0.85;;;8.80;99.90;;;;;;5092153;28;20677;-72
2024/03/07 10:31:34;;;;;;;0.80;0.80;;;8.90;99.90;;;;;;5092084;28;20542;-71
2024/03/07 10:34:03;;;;;;;0.70;0.70;;;9.20;99.90;;;;;;5073964;28;20192;-72
2024/03/07 10:36:30;;;;;;;0.70;0.70;;;9.30;99.90;;;;;;5093644;28;20599;-71
2024/03/07 10:39:13;;;;;;;0.65;0.65;;;9.40;99.90;;;;;;5095799;28;20184;-71
2024/03/07 10:41:48;;;;;;;1.27;1.17;;;9.60;99.90;;;;;;5095592;28;20288;-71
2024/03/07 10:44:26;;;;;;;0.60;0.60;;;9.90;99.90;;;;;;5095502;28;20662;-71
2024/03/07 10:46:53;;;;;;;0.63;0.63;;;10.00;99.90;;;;;;5077421;28;20211;-72
2024/03/07 10:49:24;;;;;;;0.70;0.70;;;10.00;99.90;;;;;;5077421;28;20558;-73
2024/03/07 10:52:25;;;;;;;0.73;0.73;;;10.10;99.90;;;;;;5095551;28;20219;-72
2024/03/07 10:54:57;;;;;;;0.80;0.80;;;10.40;99.90;;;;;;5093215;28;20203;-72
2024/03/07 10:57:53;;;;;;;0.60;0.60;;;10.30;99.90;;;;;;5095313;28;20598;-74
2024/03/07 11:00:30;;;;;;;0.60;0.60;;;10.60;99.90;;;;;;5095372;28;20774;-73
2024/03/07 11:02:56;;;;;;;0.88;0.88;;;10.70;99.90;;;;;;5095238;28;20196;-72
2024/03/07 11:05:29;;;;;;;1.80;1.70;;;10.90;99.90;;;;;;5076663;28;20208;-72
2024/03/07 11:07:57;;;;;;;0.77;0.77;;;11.10;99.90;;;;;;5095312;28;20628;-70
2024/03/07 11:10:23;;;;;;;0.60;0.60;;;10.80;99.90;;;;;;5093546;28;20180;-71
2024/03/07 11:12:51;;;;;;;0.77;0.77;;;11.00;99.90;;;;;;5091377;28;20595;-70
2024/03/07 11:15:19;;;;;;;0.88;0.88;;;11.30;99.90;;;;;;5095023;28;20681;-72
2024/03/07 11:17:47;;;;;;;1.02;1.02;;;11.40;99.90;;;;;;5095003;28;20213;-71
2024/03/07 11:20:23;;;;;;;0.50;0.50;;;11.50;99.90;;;;;;5094809;28;20668;-71
2024/03/07 11:22:49;;;;;;;0.88;0.88;;;11.70;99.90;;;;;;5094996;28;20192;-74
2024/03/07 11:25:19;;;;;;;1.10;1.08;;;11.90;99.90;;;;;;5094760;28;20210;-74
2024/03/07 11:27:53;;;;;;;0.65;0.65;;;12.10;99.90;;;;;;5094781;28;20195;-73
2024/03/07 11:30:21;;;;;;;0.73;0.73;;;11.90;99.90;;;;;;5094666;28;20554;-74
2024/03/07 11:32:49;;;;;;;0.60;0.60;;;11.60;99.90;;;;;;5094736;28;20567;-74
2024/03/07 11:35:15;;;;;;;0.60;0.60;;;11.30;99.90;;;;;;5076617;28;20283;-74
2024/03/07 11:37:48;;;;;;;1.00;1.00;;;11.20;99.90;;;;;;5094413;28;20280;-74
2024/03/07 11:40:34;;;;;;;0.65;0.65;;;10.70;99.90;;;;;;5076375;28;20286;-72
2024/03/07 11:43:04;;;;;;;0.60;0.60;;;10.90;99.90;;;;;;5083486;28;20220;-73
2024/03/07 11:45:38;;;;;;;0.85;0.73;;;11.10;99.90;;;;;;5094179;28;20291;-74
2024/03/07 11:48:09;;;;;;;0.60;0.60;;;11.30;99.90;;;;;;5093568;28;20648;-73
2024/03/07 11:50:39;;;;;;;0.50;0.50;;;11.50;99.90;;;;;;5076060;28;20674;-73
2024/03/07 11:53:06;;;;;;;0.60;0.60;;;11.50;99.90;;;;;;5094377;28;20743;-72
2024/03/07 11:55:43;;;;;;;0.50;0.50;;;11.70;99.10;;;;;;5093210;28;20282;-72
2024/03/07 11:58:16;;;;;;;0.60;0.60;;;11.90;99.90;;;;;;5092994;28;20227;-73
2024/03/07 12:00:44;;;;;;;0.50;0.50;;;12.00;99.90;;;;;;5095889;28;20699;-73
2024/03/07 12:03:20;;;;;;;0.50;0.50;;;12.10;99.40;;;;;;5114419;28;20192;-73
2024/03/07 12:05:47;;;;;;;0.70;0.70;;;12.10;98.30;;;;;;5114468;28;20215;-73
2024/03/07 12:08:13;;;;;;;0.65;0.65;;;11.80;98.40;;;;;;5114027;28;20718;-73
2024/03/07 12:10:43;;;;;;;0.50;0.50;;;11.80;99.70;;;;;;5114250;28;20270;-71
2024/03/07 12:13:15;;;;;;;0.60;0.60;;;11.70;98.10;;;;;;5114378;28;20211;-73
2024/03/07 12:15:42;;;;;;;0.60;0.60;;;11.40;99.90;;;;;;5114242;28;20237;-74
2024/03/07 12:18:09;;;;;;;0.50;0.50;;;11.60;99.90;;;;;;5114308;28;20232;-74
2024/03/07 12:20:40;;;;;;;0.70;0.70;;;11.60;98.90;;;;;;5113994;28;20677;-73
2024/03/07 12:23:11;;;;;;;0.60;0.60;;;11.40;99.90;;;;;;5129929;27;20230;-73
2024/03/07 12:25:38;;;;;;;0.70;0.70;;;11.40;99.90;;;;;;5114006;28;20195;-74
2024/03/07 12:28:12;;;;;;;0.60;0.60;;;11.40;99.90;;;;;;5113981;28;20202;-74
2024/03/07 12:31:01;;;;;;;0.95;0.95;;;11.50;99.90;;;;;;5095623;28;20667;-74
2024/03/07 12:33:29;;;;;;;2.17;1.23;;;11.80;99.90;;;;;;5113835;28;20195;-75
2024/03/07 12:36:09;;;;;;;0.70;0.70;;;11.60;99.90;;;;;;5114048;28;20783;-75
2024/03/07 12:38:37;;;;;;;0.60;0.60;;;11.60;99.90;;;;;;5113659;28;20215;-74
2024/03/07 12:41:08;;;;;;;0.75;0.75;;;11.10;99.90;;;;;;5095570;28;20195;-75
2024/03/07 12:43:34;;;;;;;1.10;1.00;;;11.20;99.90;;;;;;5113386;28;20199;-74
2024/03/07 12:46:00;;;;;;;0.60;0.60;;;11.50;99.90;;;;;;5113789;28;20196;-75
2024/03/07 12:48:26;;;;;;;0.50;0.50;;;11.50;99.90;;;;;;5113446;28;20531;-75
2024/03/07 12:50:55;;;;;;;1.13;0.75;;;11.50;99.90;;;;;;5113738;28;20192;-75
2024/03/07 12:53:22;;;;;;;1.05;0.60;;;11.30;99.90;;;;;;5095057;28;20195;-75